sensor_id;sensor_type;location;lat;lon;timestamp;P1;durP1;ratioP1;P2;durP2;ratioP2
50231;SDS011;36118;56.468;84.952;2022-10-26T00:04:00;15.85;;;7.40;;
50231;SDS011;36118;56.468;84.952;2022-10-26T00:09:03;15.95;;;7.55;;
50231;SDS011;36118;56.468;84.952;2022-10-26T00:14:05;13.13;;;7.45;;
50231;SDS011;36118;56.468;84.952;2022-10-26T00:19:08;20.10;;;7.43;;
50231;SDS011;36118;56.468;84.952;2022-10-26T00:24:11;17.13;;;7.15;;
50231;SDS011;36118;56.468;84.952;2022-10-26T00:29:14;17.77;;;7.70;;
50231;SDS011;36118;56.468;84.952;2022-10-26T00:34:18;15.10;;;6.88;;
50231;SDS011;36118;56.468;84.952;2022-10-26T00:39:20;16.90;;;7.55;;
50231;SDS011;36118;56.468;84.952;2022-10-26T00:49:45;13.65;;;7.45;;
50231;SDS011;36118;56.468;84.952;2022-10-26T00:54:49;14.93;;;7.85;;
50231;SDS011;36118;56.468;84.952;2022-10-26T00:59:52;15.00;;;6.38;;
50231;SDS011;36118;56.468;84.952;2022-10-26T01:04:56;11.60;;;6.53;;
50231;SDS011;36118;56.468;84.952;2022-10-26T01:09:59;16.25;;;7.20;;
50231;SDS011;36118;56.468;84.952;2022-10-26T01:15:04;12.65;;;7.03;;
50231;SDS011;36118;56.468;84.952;2022-10-26T01:30:49;21.55;;;7.20;;
50231;SDS011;36118;56.468;84.952;2022-10-26T01:35:54;15.45;;;6.30;;
50231;SDS011;36118;56.468;84.952;2022-10-26T01:41:11;20.30;;;6.85;;
50231;SDS011;36118;56.468;84.952;2022-10-26T01:46:38;15.80;;;7.30;;
50231;SDS011;36118;56.468;84.952;2022-10-26T01:51:43;18.90;;;7.05;;
50231;SDS011;36118;56.468;84.952;2022-10-26T02:07:29;17.10;;;5.85;;
50231;SDS011;36118;56.468;84.952;2022-10-26T02:12:40;11.27;;;5.80;;
50231;SDS011;36118;56.468;84.952;2022-10-26T02:18:29;16.17;;;5.70;;
50231;SDS011;36118;56.468;84.952;2022-10-26T02:23:34;16.63;;;6.55;;
50231;SDS011;36118;56.468;84.952;2022-10-26T02:28:40;14.07;;;7.07;;
50231;SDS011;36118;56.468;84.952;2022-10-26T02:33:46;18.20;;;5.60;;
50231;SDS011;36118;56.468;84.952;2022-10-26T02:38:55;11.23;;;5.90;;
50231;SDS011;36118;56.468;84.952;2022-10-26T02:44:01;9.40;;;5.43;;
50231;SDS011;36118;56.468;84.952;2022-10-26T02:49:26;14.05;;;6.32;;
50231;SDS011;36118;56.468;84.952;2022-10-26T02:54:31;19.13;;;5.90;;
50231;SDS011;36118;56.468;84.952;2022-10-26T02:59:37;15.10;;;5.90;;
50231;SDS011;36118;56.468;84.952;2022-10-26T03:04:43;14.80;;;6.18;;
50231;SDS011;36118;56.468;84.952;2022-10-26T03:09:46;13.75;;;5.38;;
50231;SDS011;36118;56.468;84.952;2022-10-26T03:14:48;11.27;;;6.40;;
50231;SDS011;36118;56.468;84.952;2022-10-26T03:19:51;13.10;;;6.35;;
50231;SDS011;36118;56.468;84.952;2022-10-26T03:24:54;12.15;;;5.18;;
50231;SDS011;36118;56.468;84.952;2022-10-26T03:29:57;12.75;;;5.75;;
50231;SDS011;36118;56.468;84.952;2022-10-26T03:34:59;10.80;;;5.88;;
50231;SDS011;36118;56.468;84.952;2022-10-26T03:40:03;12.68;;;5.07;;
50231;SDS011;36118;56.468;84.952;2022-10-26T03:45:06;9.65;;;5.80;;
50231;SDS011;36118;56.468;84.952;2022-10-26T03:50:10;9.05;;;5.25;;
50231;SDS011;36118;56.468;84.952;2022-10-26T03:55:14;21.40;;;6.30;;
50231;SDS011;36118;56.468;84.952;2022-10-26T04:00:17;10.27;;;5.55;;
50231;SDS011;36118;56.468;84.952;2022-10-26T04:05:20;11.52;;;5.40;;
50231;SDS011;36118;56.468;84.952;2022-10-26T04:10:24;15.05;;;5.88;;
50231;SDS011;36118;56.468;84.952;2022-10-26T04:15:27;11.17;;;5.30;;
50231;SDS011;36118;56.468;84.952;2022-10-26T04:20:31;12.20;;;5.38;;
50231;SDS011;36118;56.468;84.952;2022-10-26T04:25:35;9.02;;;4.60;;
50231;SDS011;36118;56.468;84.952;2022-10-26T04:30:38;9.57;;;4.53;;
50231;SDS011;36118;56.468;84.952;2022-10-26T04:35:41;11.30;;;4.97;;
50231;SDS011;36118;56.468;84.952;2022-10-26T04:40:44;9.20;;;4.80;;
50231;SDS011;36118;56.468;84.952;2022-10-26T04:45:47;13.57;;;5.40;;
50231;SDS011;36118;56.468;84.952;2022-10-26T04:50:49;15.55;;;5.40;;
50231;SDS011;36118;56.468;84.952;2022-10-26T04:55:58;10.45;;;5.20;;
50231;SDS011;36118;56.468;84.952;2022-10-26T05:01:02;17.77;;;5.28;;
50231;SDS011;36118;56.468;84.952;2022-10-26T05:06:05;15.25;;;4.95;;
50231;SDS011;36118;56.468;84.952;2022-10-26T05:11:08;9.10;;;4.68;;
50231;SDS011;36118;56.468;84.952;2022-10-26T05:16:10;11.35;;;4.60;;
50231;SDS011;36118;56.468;84.952;2022-10-26T05:21:13;13.23;;;4.75;;
50231;SDS011;36118;56.468;84.952;2022-10-26T05:26:21;14.02;;;5.00;;
50231;SDS011;36118;56.468;84.952;2022-10-26T05:31:24;9.60;;;4.03;;
50231;SDS011;36118;56.468;84.952;2022-10-26T05:36:27;9.80;;;3.95;;
50231;SDS011;36118;56.468;84.952;2022-10-26T05:41:30;9.48;;;3.97;;
50231;SDS011;36118;56.468;84.952;2022-10-26T05:46:32;10.70;;;4.20;;
50231;SDS011;36118;56.468;84.952;2022-10-26T05:51:35;5.97;;;3.08;;
50231;SDS011;36118;56.468;84.952;2022-10-26T05:56:38;11.98;;;4.47;;
50231;SDS011;36118;56.468;84.952;2022-10-26T06:07:17;14.60;;;5.68;;
50231;SDS011;36118;56.468;84.952;2022-10-26T06:12:25;11.25;;;4.25;;
50231;SDS011;36118;56.468;84.952;2022-10-26T06:17:41;14.60;;;4.03;;
50231;SDS011;36118;56.468;84.952;2022-10-26T06:33:59;12.03;;;3.30;;
50231;SDS011;36118;56.468;84.952;2022-10-26T06:39:06;10.27;;;3.88;;
50231;SDS011;36118;56.468;84.952;2022-10-26T06:44:18;8.02;;;3.60;;
50231;SDS011;36118;56.468;84.952;2022-10-26T06:49:28;10.38;;;3.50;;
50231;SDS011;36118;56.468;84.952;2022-10-26T06:54:49;9.60;;;4.43;;
50231;SDS011;36118;56.468;84.952;2022-10-26T06:59:56;10.23;;;3.35;;
50231;SDS011;36118;56.468;84.952;2022-10-26T07:05:04;12.52;;;3.53;;
50231;SDS011;36118;56.468;84.952;2022-10-26T07:10:07;10.10;;;3.83;;
50231;SDS011;36118;56.468;84.952;2022-10-26T07:15:12;7.70;;;3.55;;
50231;SDS011;36118;56.468;84.952;2022-10-26T07:20:16;7.25;;;3.08;;
50231;SDS011;36118;56.468;84.952;2022-10-26T07:30:24;11.98;;;4.32;;
50231;SDS011;36118;56.468;84.952;2022-10-26T07:35:31;14.07;;;3.53;;
50231;SDS011;36118;56.468;84.952;2022-10-26T07:40:35;16.00;;;5.30;;
50231;SDS011;36118;56.468;84.952;2022-10-26T07:45:39;12.80;;;3.45;;
50231;SDS011;36118;56.468;84.952;2022-10-26T07:50:41;18.13;;;3.75;;
50231;SDS011;36118;56.468;84.952;2022-10-26T07:55:51;7.22;;;3.60;;
50231;SDS011;36118;56.468;84.952;2022-10-26T08:01:03;11.00;;;3.25;;
50231;SDS011;36118;56.468;84.952;2022-10-26T08:06:09;11.63;;;4.75;;
50231;SDS011;36118;56.468;84.952;2022-10-26T08:11:12;11.20;;;3.60;;
50231;SDS011;36118;56.468;84.952;2022-10-26T08:16:15;14.07;;;3.60;;
50231;SDS011;36118;56.468;84.952;2022-10-26T08:21:18;12.77;;;3.30;;
50231;SDS011;36118;56.468;84.952;2022-10-26T08:26:36;6.93;;;2.70;;
50231;SDS011;36118;56.468;84.952;2022-10-26T08:31:39;13.15;;;3.30;;
50231;SDS011;36118;56.468;84.952;2022-10-26T08:36:42;8.85;;;3.35;;
50231;SDS011;36118;56.468;84.952;2022-10-26T08:41:45;10.10;;;3.38;;
50231;SDS011;36118;56.468;84.952;2022-10-26T08:46:50;15.73;;;3.60;;
50231;SDS011;36118;56.468;84.952;2022-10-26T08:52:00;9.27;;;3.35;;
50231;SDS011;36118;56.468;84.952;2022-10-26T08:57:08;11.13;;;3.65;;
50231;SDS011;36118;56.468;84.952;2022-10-26T09:02:17;26.60;;;5.70;;
50231;SDS011;36118;56.468;84.952;2022-10-26T09:07:31;17.02;;;3.95;;
50231;SDS011;36118;56.468;84.952;2022-10-26T09:28:34;18.48;;;4.38;;
50231;SDS011;36118;56.468;84.952;2022-10-26T09:33:38;11.05;;;4.13;;
50231;SDS011;36118;56.468;84.952;2022-10-26T09:44:18;17.98;;;4.47;;
50231;SDS011;36118;56.468;84.952;2022-10-26T09:49:52;9.93;;;3.58;;
50231;SDS011;36118;56.468;84.952;2022-10-26T09:54:55;11.25;;;4.20;;
50231;SDS011;36118;56.468;84.952;2022-10-26T09:59:57;14.25;;;4.00;;
50231;SDS011;36118;56.468;84.952;2022-10-26T10:05:00;15.73;;;3.90;;
50231;SDS011;36118;56.468;84.952;2022-10-26T10:10:17;19.58;;;4.65;;
50231;SDS011;36118;56.468;84.952;2022-10-26T10:15:22;27.83;;;4.25;;
50231;SDS011;36118;56.468;84.952;2022-10-26T10:20:29;15.38;;;4.05;;
50231;SDS011;36118;56.468;84.952;2022-10-26T10:25:34;17.50;;;3.90;;
50231;SDS011;36118;56.468;84.952;2022-10-26T10:36:40;20.08;;;4.70;;
50231;SDS011;36118;56.468;84.952;2022-10-26T10:41:43;25.38;;;6.43;;
50231;SDS011;36118;56.468;84.952;2022-10-26T10:46:46;31.80;;;8.05;;
50231;SDS011;36118;56.468;84.952;2022-10-26T10:51:49;27.00;;;7.88;;
50231;SDS011;36118;56.468;84.952;2022-10-26T10:56:53;25.60;;;7.13;;
50231;SDS011;36118;56.468;84.952;2022-10-26T11:07:39;20.50;;;6.00;;
50231;SDS011;36118;56.468;84.952;2022-10-26T11:12:51;24.77;;;6.07;;
50231;SDS011;36118;56.468;84.952;2022-10-26T11:18:06;23.30;;;5.60;;
50231;SDS011;36118;56.468;84.952;2022-10-26T11:23:17;25.75;;;5.90;;
50231;SDS011;36118;56.468;84.952;2022-10-26T11:28:30;32.88;;;5.55;;
50231;SDS011;36118;56.468;84.952;2022-10-26T11:33:39;26.88;;;5.80;;
50231;SDS011;36118;56.468;84.952;2022-10-26T11:44:05;20.58;;;5.03;;
50231;SDS011;36118;56.468;84.952;2022-10-26T11:49:20;25.00;;;4.95;;
50231;SDS011;36118;56.468;84.952;2022-10-26T11:54:39;25.05;;;5.18;;
50231;SDS011;36118;56.468;84.952;2022-10-26T11:59:49;15.18;;;5.30;;
50231;SDS011;36118;56.468;84.952;2022-10-26T12:05:05;16.02;;;5.57;;
50231;SDS011;36118;56.468;84.952;2022-10-26T12:10:28;19.63;;;7.18;;
50231;SDS011;36118;56.468;84.952;2022-10-26T12:15:45;33.10;;;8.88;;
50231;SDS011;36118;56.468;84.952;2022-10-26T12:21:05;48.58;;;11.55;;
50231;SDS011;36118;56.468;84.952;2022-10-26T12:36:48;41.97;;;11.80;;
50231;SDS011;36118;56.468;84.952;2022-10-26T12:47:09;31.08;;;10.30;;
50231;SDS011;36118;56.468;84.952;2022-10-26T12:57:36;31.38;;;11.02;;
50231;SDS011;36118;56.468;84.952;2022-10-26T13:02:51;26.83;;;9.38;;
50231;SDS011;36118;56.468;84.952;2022-10-26T13:08:03;26.08;;;7.63;;
50231;SDS011;36118;56.468;84.952;2022-10-26T13:13:17;19.80;;;7.35;;
50231;SDS011;36118;56.468;84.952;2022-10-26T13:18:23;24.40;;;8.10;;
50231;SDS011;36118;56.468;84.952;2022-10-26T13:23:27;31.42;;;9.20;;
50231;SDS011;36118;56.468;84.952;2022-10-26T13:33:40;39.05;;;10.75;;
50231;SDS011;36118;56.468;84.952;2022-10-26T13:38:44;26.52;;;11.05;;
50231;SDS011;36118;56.468;84.952;2022-10-26T13:43:48;28.20;;;11.85;;
50231;SDS011;36118;56.468;84.952;2022-10-26T13:48:53;24.30;;;11.75;;
50231;SDS011;36118;56.468;84.952;2022-10-26T13:54:47;22.27;;;12.30;;
50231;SDS011;36118;56.468;84.952;2022-10-26T13:59:37;33.33;;;13.85;;
50231;SDS011;36118;56.468;84.952;2022-10-26T14:04:46;29.17;;;13.73;;
50231;SDS011;36118;56.468;84.952;2022-10-26T14:09:50;29.40;;;13.90;;
50231;SDS011;36118;56.468;84.952;2022-10-26T14:14:56;32.28;;;16.35;;
50231;SDS011;36118;56.468;84.952;2022-10-26T14:20:13;30.42;;;14.05;;
50231;SDS011;36118;56.468;84.952;2022-10-26T14:25:24;36.72;;;13.88;;
50231;SDS011;36118;56.468;84.952;2022-10-26T14:30:43;27.83;;;14.15;;
50231;SDS011;36118;56.468;84.952;2022-10-26T14:35:46;30.38;;;14.82;;
50231;SDS011;36118;56.468;84.952;2022-10-26T14:40:49;33.65;;;14.35;;
50231;SDS011;36118;56.468;84.952;2022-10-26T14:45:53;32.10;;;15.02;;
50231;SDS011;36118;56.468;84.952;2022-10-26T14:51:16;35.07;;;15.47;;
50231;SDS011;36118;56.468;84.952;2022-10-26T15:02:21;34.60;;;16.70;;
50231;SDS011;36118;56.468;84.952;2022-10-26T15:12:35;30.13;;;15.75;;
50231;SDS011;36118;56.468;84.952;2022-10-26T15:17:40;30.92;;;15.07;;
50231;SDS011;36118;56.468;84.952;2022-10-26T15:22:53;32.40;;;15.27;;
50231;SDS011;36118;56.468;84.952;2022-10-26T15:28:10;32.47;;;15.35;;
50231;SDS011;36118;56.468;84.952;2022-10-26T15:33:19;29.00;;;13.57;;
50231;SDS011;36118;56.468;84.952;2022-10-26T15:38:23;32.88;;;14.52;;
50231;SDS011;36118;56.468;84.952;2022-10-26T15:43:30;32.60;;;14.20;;
50231;SDS011;36118;56.468;84.952;2022-10-26T15:48:33;33.60;;;15.35;;
50231;SDS011;36118;56.468;84.952;2022-10-26T15:53:37;33.88;;;15.10;;
50231;SDS011;36118;56.468;84.952;2022-10-26T15:58:39;34.72;;;14.43;;
50231;SDS011;36118;56.468;84.952;2022-10-26T16:03:42;33.67;;;14.95;;
50231;SDS011;36118;56.468;84.952;2022-10-26T16:08:49;31.88;;;15.05;;
50231;SDS011;36118;56.468;84.952;2022-10-26T16:13:53;31.15;;;13.95;;
50231;SDS011;36118;56.468;84.952;2022-10-26T16:19:00;31.45;;;14.63;;
50231;SDS011;36118;56.468;84.952;2022-10-26T16:24:23;34.35;;;15.25;;
50231;SDS011;36118;56.468;84.952;2022-10-26T16:29:25;31.90;;;15.98;;
50231;SDS011;36118;56.468;84.952;2022-10-26T16:34:28;31.38;;;15.05;;
50231;SDS011;36118;56.468;84.952;2022-10-26T16:39:31;34.25;;;16.27;;
50231;SDS011;36118;56.468;84.952;2022-10-26T16:44:34;41.47;;;17.05;;
50231;SDS011;36118;56.468;84.952;2022-10-26T16:49:37;37.58;;;16.33;;
50231;SDS011;36118;56.468;84.952;2022-10-26T16:54:44;35.45;;;15.32;;
50231;SDS011;36118;56.468;84.952;2022-10-26T16:59:47;33.53;;;15.98;;
50231;SDS011;36118;56.468;84.952;2022-10-26T17:04:49;42.13;;;16.55;;
50231;SDS011;36118;56.468;84.952;2022-10-26T17:09:52;38.30;;;15.95;;
50231;SDS011;36118;56.468;84.952;2022-10-26T17:14:55;41.92;;;16.65;;
50231;SDS011;36118;56.468;84.952;2022-10-26T17:20:00;46.58;;;16.63;;
50231;SDS011;36118;56.468;84.952;2022-10-26T17:25:03;39.67;;;16.25;;
50231;SDS011;36118;56.468;84.952;2022-10-26T17:30:06;45.80;;;16.58;;
50231;SDS011;36118;56.468;84.952;2022-10-26T17:35:09;44.63;;;15.95;;
50231;SDS011;36118;56.468;84.952;2022-10-26T17:40:12;36.72;;;16.67;;
50231;SDS011;36118;56.468;84.952;2022-10-26T17:45:15;34.88;;;16.20;;
50231;SDS011;36118;56.468;84.952;2022-10-26T17:50:18;41.45;;;16.13;;
50231;SDS011;36118;56.468;84.952;2022-10-26T17:55:20;34.90;;;15.95;;
50231;SDS011;36118;56.468;84.952;2022-10-26T18:00:23;29.95;;;14.68;;
50231;SDS011;36118;56.468;84.952;2022-10-26T18:05:26;38.67;;;15.13;;
50231;SDS011;36118;56.468;84.952;2022-10-26T18:10:32;37.72;;;14.32;;
50231;SDS011;36118;56.468;84.952;2022-10-26T18:15:39;33.65;;;14.77;;
50231;SDS011;36118;56.468;84.952;2022-10-26T18:20:41;38.75;;;15.55;;
50231;SDS011;36118;56.468;84.952;2022-10-26T18:25:44;32.00;;;15.05;;
50231;SDS011;36118;56.468;84.952;2022-10-26T18:30:47;35.83;;;14.95;;
50231;SDS011;36118;56.468;84.952;2022-10-26T18:35:50;32.92;;;14.82;;
50231;SDS011;36118;56.468;84.952;2022-10-26T18:40:53;36.25;;;14.73;;
50231;SDS011;36118;56.468;84.952;2022-10-26T18:46:05;34.58;;;14.95;;
50231;SDS011;36118;56.468;84.952;2022-10-26T18:51:11;30.07;;;14.10;;
50231;SDS011;36118;56.468;84.952;2022-10-26T18:56:15;38.92;;;14.13;;
50231;SDS011;36118;56.468;84.952;2022-10-26T19:01:20;42.42;;;14.05;;
50231;SDS011;36118;56.468;84.952;2022-10-26T19:06:27;37.67;;;14.43;;
50231;SDS011;36118;56.468;84.952;2022-10-26T19:11:32;33.63;;;14.70;;
50231;SDS011;36118;56.468;84.952;2022-10-26T19:16:35;35.05;;;14.52;;
50231;SDS011;36118;56.468;84.952;2022-10-26T19:21:47;35.17;;;13.95;;
50231;SDS011;36118;56.468;84.952;2022-10-26T19:26:51;41.35;;;15.02;;
50231;SDS011;36118;56.468;84.952;2022-10-26T19:31:55;31.33;;;14.10;;
50231;SDS011;36118;56.468;84.952;2022-10-26T19:36:57;37.58;;;14.75;;
50231;SDS011;36118;56.468;84.952;2022-10-26T19:42:00;36.22;;;14.45;;
50231;SDS011;36118;56.468;84.952;2022-10-26T19:47:03;31.50;;;14.68;;
50231;SDS011;36118;56.468;84.952;2022-10-26T19:52:06;34.30;;;14.55;;
50231;SDS011;36118;56.468;84.952;2022-10-26T19:57:09;32.05;;;13.88;;
50231;SDS011;36118;56.468;84.952;2022-10-26T20:02:11;35.50;;;14.38;;
50231;SDS011;36118;56.468;84.952;2022-10-26T20:07:14;34.65;;;13.57;;
50231;SDS011;36118;56.468;84.952;2022-10-26T20:12:18;33.15;;;12.50;;
50231;SDS011;36118;56.468;84.952;2022-10-26T20:17:21;33.20;;;13.57;;
50231;SDS011;36118;56.468;84.952;2022-10-26T20:22:29;33.22;;;12.90;;
50231;SDS011;36118;56.468;84.952;2022-10-26T20:27:31;28.65;;;12.20;;
50231;SDS011;36118;56.468;84.952;2022-10-26T20:32:34;30.02;;;12.77;;
50231;SDS011;36118;56.468;84.952;2022-10-26T20:37:37;33.30;;;12.38;;
50231;SDS011;36118;56.468;84.952;2022-10-26T20:42:40;35.50;;;13.82;;
50231;SDS011;36118;56.468;84.952;2022-10-26T20:47:43;34.03;;;12.98;;
50231;SDS011;36118;56.468;84.952;2022-10-26T20:57:55;34.15;;;13.10;;
50231;SDS011;36118;56.468;84.952;2022-10-26T21:03:22;32.72;;;12.00;;
50231;SDS011;36118;56.468;84.952;2022-10-26T21:08:25;36.58;;;12.65;;
50231;SDS011;36118;56.468;84.952;2022-10-26T21:13:28;34.20;;;11.55;;
50231;SDS011;36118;56.468;84.952;2022-10-26T21:18:31;30.80;;;11.02;;
50231;SDS011;36118;56.468;84.952;2022-10-26T21:23:35;25.60;;;10.55;;
50231;SDS011;36118;56.468;84.952;2022-10-26T21:28:39;34.73;;;11.17;;
50231;SDS011;36118;56.468;84.952;2022-10-26T21:33:44;31.77;;;11.47;;
50231;SDS011;36118;56.468;84.952;2022-10-26T21:38:47;30.90;;;11.90;;
50231;SDS011;36118;56.468;84.952;2022-10-26T21:43:50;27.08;;;11.88;;
50231;SDS011;36118;56.468;84.952;2022-10-26T21:49:09;37.22;;;11.45;;
50231;SDS011;36118;56.468;84.952;2022-10-26T21:54:12;33.22;;;11.35;;
50231;SDS011;36118;56.468;84.952;2022-10-26T21:59:15;28.55;;;12.60;;
50231;SDS011;36118;56.468;84.952;2022-10-26T22:04:17;30.55;;;12.32;;
50231;SDS011;36118;56.468;84.952;2022-10-26T22:09:20;36.03;;;12.57;;
50231;SDS011;36118;56.468;84.952;2022-10-26T22:14:23;27.65;;;11.60;;
50231;SDS011;36118;56.468;84.952;2022-10-26T22:19:25;26.92;;;12.10;;
50231;SDS011;36118;56.468;84.952;2022-10-26T22:24:28;33.25;;;13.07;;
50231;SDS011;36118;56.468;84.952;2022-10-26T22:29:31;28.27;;;12.43;;
50231;SDS011;36118;56.468;84.952;2022-10-26T22:34:34;29.45;;;12.02;;
50231;SDS011;36118;56.468;84.952;2022-10-26T22:39:36;33.22;;;12.20;;
50231;SDS011;36118;56.468;84.952;2022-10-26T22:44:39;28.60;;;11.38;;
50231;SDS011;36118;56.468;84.952;2022-10-26T22:49:42;26.40;;;10.85;;
50231;SDS011;36118;56.468;84.952;2022-10-26T22:54:44;25.67;;;11.52;;
50231;SDS011;36118;56.468;84.952;2022-10-26T22:59:47;28.40;;;10.63;;
50231;SDS011;36118;56.468;84.952;2022-10-26T23:04:50;29.38;;;11.63;;
50231;SDS011;36118;56.468;84.952;2022-10-26T23:09:52;27.23;;;10.73;;
50231;SDS011;36118;56.468;84.952;2022-10-26T23:14:55;33.10;;;11.00;;
50231;SDS011;36118;56.468;84.952;2022-10-26T23:19:58;26.90;;;11.65;;
50231;SDS011;36118;56.468;84.952;2022-10-26T23:25:00;29.52;;;11.68;;
50231;SDS011;36118;56.468;84.952;2022-10-26T23:30:04;19.60;;;9.35;;
50231;SDS011;36118;56.468;84.952;2022-10-26T23:35:07;28.48;;;10.15;;
50231;SDS011;36118;56.468;84.952;2022-10-26T23:40:10;25.33;;;9.10;;
50231;SDS011;36118;56.468;84.952;2022-10-26T23:45:13;25.67;;;9.23;;
50231;SDS011;36118;56.468;84.952;2022-10-26T23:50:15;17.70;;;8.43;;
50231;SDS011;36118;56.468;84.952;2022-10-26T23:55:18;21.75;;;9.20;;
